sensor_id;sensor_type;location;lat;lon;timestamp;noise_LAeq;noise_LA_min;noise_LA_max;noise_LA01;noise_LA95
37279;Laerm;7458;49.002;8.472;2024-03-29T00:01:11;64.85;39.58;76.60;;
37279;Laerm;7458;49.002;8.472;2024-03-29T00:03:37;64.75;39.81;76.56;;
37279;Laerm;7458;49.002;8.472;2024-03-29T00:06:03;65.06;38.52;76.95;;
37279;Laerm;7458;49.002;8.472;2024-03-29T00:08:28;64.72;38.81;76.73;;
37279;Laerm;7458;49.002;8.472;2024-03-29T00:10:54;64.84;38.21;76.64;;
37279;Laerm;7458;49.002;8.472;2024-03-29T00:13:20;64.63;38.81;76.59;;
37279;Laerm;7458;49.002;8.472;2024-03-29T00:15:46;64.42;38.37;76.37;;
37279;Laerm;7458;49.002;8.472;2024-03-29T00:18:12;65.22;38.95;76.88;;
37279;Laerm;7458;49.002;8.472;2024-03-29T00:20:38;64.68;38.37;76.50;;
37279;Laerm;7458;49.002;8.472;2024-03-29T00:23:04;64.59;36.45;76.62;;
37279;Laerm;7458;49.002;8.472;2024-03-29T00:25:30;65.17;37.32;76.51;;
37279;Laerm;7458;49.002;8.472;2024-03-29T00:27:56;64.67;37.32;76.75;;
37279;Laerm;7458;49.002;8.472;2024-03-29T00:30:22;64.62;37.52;76.58;;
37279;Laerm;7458;49.002;8.472;2024-03-29T00:32:47;64.86;36.91;76.83;;
37279;Laerm;7458;49.002;8.472;2024-03-29T00:35:13;64.75;37.12;76.56;;
37279;Laerm;7458;49.002;8.472;2024-03-29T00:37:40;64.69;37.52;76.49;;
37279;Laerm;7458;49.002;8.472;2024-03-29T00:40:06;64.67;37.70;76.49;;
37279;Laerm;7458;49.002;8.472;2024-03-29T00:42:32;65.26;38.05;76.56;;
37279;Laerm;7458;49.002;8.472;2024-03-29T00:44:58;65.03;38.37;76.88;;
37279;Laerm;7458;49.002;8.472;2024-03-29T00:47:23;65.35;37.88;84.40;;
37279;Laerm;7458;49.002;8.472;2024-03-29T00:49:49;64.73;38.05;76.76;;
37279;Laerm;7458;49.002;8.472;2024-03-29T00:52:15;64.71;37.35;79.59;;
37279;Laerm;7458;49.002;8.472;2024-03-29T00:54:41;64.59;37.70;76.79;;
37279;Laerm;7458;49.002;8.472;2024-03-29T00:57:07;64.84;36.45;76.73;;
37279;Laerm;7458;49.002;8.472;2024-03-29T00:59:38;64.49;38.21;82.96;;
37279;Laerm;7458;49.002;8.472;2024-03-29T01:02:04;64.33;37.12;75.95;;
37279;Laerm;7458;49.002;8.472;2024-03-29T01:04:30;64.34;37.70;76.96;;
37279;Laerm;7458;49.002;8.472;2024-03-29T01:06:56;64.23;38.52;76.13;;
37279;Laerm;7458;49.002;8.472;2024-03-29T01:09:24;64.33;37.52;76.05;;
37279;Laerm;7458;49.002;8.472;2024-03-29T01:11:52;64.14;37.12;76.15;;
37279;Laerm;7458;49.002;8.472;2024-03-29T01:14:19;64.43;37.12;76.05;;
37279;Laerm;7458;49.002;8.472;2024-03-29T01:16:45;64.59;36.69;76.21;;
37279;Laerm;7458;49.002;8.472;2024-03-29T01:19:12;66.07;38.21;81.65;;
37279;Laerm;7458;49.002;8.472;2024-03-29T01:21:38;64.19;37.88;76.06;;
37279;Laerm;7458;49.002;8.472;2024-03-29T01:24:04;65.13;36.20;87.59;;
37279;Laerm;7458;49.002;8.472;2024-03-29T01:26:31;64.30;37.52;78.27;;
37279;Laerm;7458;49.002;8.472;2024-03-29T01:28:57;64.49;36.45;76.13;;
37279;Laerm;7458;49.002;8.472;2024-03-29T01:31:23;64.46;36.69;77.33;;
37279;Laerm;7458;49.002;8.472;2024-03-29T01:33:50;64.40;36.69;76.03;;
37279;Laerm;7458;49.002;8.472;2024-03-29T01:36:16;64.50;37.88;76.08;;
37279;Laerm;7458;49.002;8.472;2024-03-29T01:38:42;64.25;36.69;76.08;;
37279;Laerm;7458;49.002;8.472;2024-03-29T01:41:11;64.46;36.45;76.15;;
37279;Laerm;7458;49.002;8.472;2024-03-29T01:43:38;64.60;37.12;76.12;;
37279;Laerm;7458;49.002;8.472;2024-03-29T01:46:05;65.27;37.52;85.51;;
37279;Laerm;7458;49.002;8.472;2024-03-29T01:48:34;64.59;37.88;76.56;;
37279;Laerm;7458;49.002;8.472;2024-03-29T01:51:01;64.41;37.70;76.25;;
37279;Laerm;7458;49.002;8.472;2024-03-29T01:53:29;64.59;36.91;76.16;;
37279;Laerm;7458;49.002;8.472;2024-03-29T01:55:55;64.65;36.69;76.22;;
37279;Laerm;7458;49.002;8.472;2024-03-29T01:58:22;64.41;37.32;78.39;;
37279;Laerm;7458;49.002;8.472;2024-03-29T02:00:57;64.80;35.94;76.56;;
37279;Laerm;7458;49.002;8.472;2024-03-29T02:03:23;64.25;37.70;76.23;;
37279;Laerm;7458;49.002;8.472;2024-03-29T02:05:50;64.45;37.12;76.04;;
37279;Laerm;7458;49.002;8.472;2024-03-29T02:08:18;64.60;38.67;76.21;;
37279;Laerm;7458;49.002;8.472;2024-03-29T02:10:46;64.51;37.88;83.93;;
37279;Laerm;7458;49.002;8.472;2024-03-29T02:13:13;64.59;37.52;78.49;;
37279;Laerm;7458;49.002;8.472;2024-03-29T02:15:40;64.30;37.52;76.08;;
37279;Laerm;7458;49.002;8.472;2024-03-29T02:18:07;64.67;36.69;76.36;;
37279;Laerm;7458;49.002;8.472;2024-03-29T02:20:34;64.72;36.91;76.37;;
37279;Laerm;7458;49.002;8.472;2024-03-29T02:23:07;64.92;36.20;76.51;;
37279;Laerm;7458;49.002;8.472;2024-03-29T02:25:35;64.78;36.91;76.58;;
37279;Laerm;7458;49.002;8.472;2024-03-29T02:28:02;65.31;37.70;76.45;;
37279;Laerm;7458;49.002;8.472;2024-03-29T02:30:32;65.38;36.98;76.64;;
37279;Laerm;7458;49.002;8.472;2024-03-29T02:33:01;65.36;37.12;76.75;;
37279;Laerm;7458;49.002;8.472;2024-03-29T02:35:28;65.49;38.21;76.64;;
37279;Laerm;7458;49.002;8.472;2024-03-29T02:37:55;65.53;36.45;76.68;;
37279;Laerm;7458;49.002;8.472;2024-03-29T02:40:21;65.55;37.35;76.80;;
37279;Laerm;7458;49.002;8.472;2024-03-29T02:42:51;65.69;37.12;76.75;;
37279;Laerm;7458;49.002;8.472;2024-03-29T02:45:17;65.86;37.12;87.59;;
37279;Laerm;7458;49.002;8.472;2024-03-29T02:47:43;65.70;39.08;76.78;;
37279;Laerm;7458;49.002;8.472;2024-03-29T02:50:13;65.65;37.35;76.69;;
37279;Laerm;7458;49.002;8.472;2024-03-29T02:52:39;65.50;37.88;76.72;;
37279;Laerm;7458;49.002;8.472;2024-03-29T02:55:05;65.61;36.20;76.61;;
37279;Laerm;7458;49.002;8.472;2024-03-29T02:57:32;65.57;36.20;76.80;;
37279;Laerm;7458;49.002;8.472;2024-03-29T02:59:58;65.73;37.52;76.78;;
37279;Laerm;7458;49.002;8.472;2024-03-29T03:02:24;65.76;37.70;76.92;;
37279;Laerm;7458;49.002;8.472;2024-03-29T03:04:50;65.90;37.88;76.88;;
37279;Laerm;7458;49.002;8.472;2024-03-29T03:07:16;65.92;36.69;77.04;;
37279;Laerm;7458;49.002;8.472;2024-03-29T03:10:01;65.35;38.67;76.87;;
37279;Laerm;7458;49.002;8.472;2024-03-29T03:12:45;65.53;37.12;77.09;;
37279;Laerm;7458;49.002;8.472;2024-03-29T03:15:11;65.61;38.95;77.96;;
37279;Laerm;7458;49.002;8.472;2024-03-29T03:17:37;65.52;40.03;78.35;;
37279;Laerm;7458;49.002;8.472;2024-03-29T03:20:04;65.50;38.81;81.64;;
37279;Laerm;7458;49.002;8.472;2024-03-29T03:22:32;65.31;37.12;76.82;;
37279;Laerm;7458;49.002;8.472;2024-03-29T03:24:58;64.95;37.52;76.41;;
37279;Laerm;7458;49.002;8.472;2024-03-29T03:27:24;64.72;37.52;76.68;;
37279;Laerm;7458;49.002;8.472;2024-03-29T03:29:50;64.85;38.05;76.58;;
37279;Laerm;7458;49.002;8.472;2024-03-29T03:32:17;64.85;36.69;76.69;;
37279;Laerm;7458;49.002;8.472;2024-03-29T03:34:43;64.76;37.88;76.48;;
37279;Laerm;7458;49.002;8.472;2024-03-29T03:37:09;64.90;38.52;76.53;;
37279;Laerm;7458;49.002;8.472;2024-03-29T03:39:35;64.80;38.21;76.44;;
37279;Laerm;7458;49.002;8.472;2024-03-29T03:42:02;64.93;37.70;76.54;;
37279;Laerm;7458;49.002;8.472;2024-03-29T03:44:28;65.09;37.88;76.68;;
37279;Laerm;7458;49.002;8.472;2024-03-29T03:46:55;65.06;36.45;76.64;;
37279;Laerm;7458;49.002;8.472;2024-03-29T03:49:21;65.06;37.12;76.73;;
37279;Laerm;7458;49.002;8.472;2024-03-29T03:51:47;65.26;37.88;76.62;;
37279;Laerm;7458;49.002;8.472;2024-03-29T03:54:13;65.64;36.91;76.62;;
37279;Laerm;7458;49.002;8.472;2024-03-29T03:56:39;65.29;36.69;76.33;;
37279;Laerm;7458;49.002;8.472;2024-03-29T03:59:05;65.55;37.53;76.30;;
37279;Laerm;7458;49.002;8.472;2024-03-29T04:01:31;65.30;37.32;76.05;;
37279;Laerm;7458;49.002;8.472;2024-03-29T04:03:57;65.29;38.37;76.31;;
37279;Laerm;7458;49.002;8.472;2024-03-29T04:06:24;65.54;38.81;76.51;;
37279;Laerm;7458;49.002;8.472;2024-03-29T04:08:50;65.27;40.23;76.60;;
37279;Laerm;7458;49.002;8.472;2024-03-29T04:11:16;65.48;38.05;76.47;;
37279;Laerm;7458;49.002;8.472;2024-03-29T04:13:44;65.30;37.52;76.45;;
37279;Laerm;7458;49.002;8.472;2024-03-29T04:16:11;65.04;38.05;76.39;;
37279;Laerm;7458;49.002;8.472;2024-03-29T04:18:37;64.24;39.34;75.67;;
37279;Laerm;7458;49.002;8.472;2024-03-29T04:21:03;65.29;40.23;76.65;;
37279;Laerm;7458;49.002;8.472;2024-03-29T04:23:30;65.51;39.46;76.80;;
37279;Laerm;7458;49.002;8.472;2024-03-29T04:25:58;65.56;37.52;77.06;;
37279;Laerm;7458;49.002;8.472;2024-03-29T04:28:25;65.49;37.32;77.13;;
37279;Laerm;7458;49.002;8.472;2024-03-29T04:31:00;65.03;39.46;76.20;;
37279;Laerm;7458;49.002;8.472;2024-03-29T04:33:27;64.89;40.53;76.03;;
37279;Laerm;7458;49.002;8.472;2024-03-29T04:35:56;65.61;39.70;76.60;;
37279;Laerm;7458;49.002;8.472;2024-03-29T04:38:23;65.33;39.34;76.64;;
37279;Laerm;7458;49.002;8.472;2024-03-29T04:40:52;65.38;38.21;76.39;;
37279;Laerm;7458;49.002;8.472;2024-03-29T04:43:21;65.13;39.08;76.05;;
37279;Laerm;7458;49.002;8.472;2024-03-29T04:45:48;65.10;39.81;76.04;;
37279;Laerm;7458;49.002;8.472;2024-03-29T04:48:14;64.76;38.95;75.43;;
37279;Laerm;7458;49.002;8.472;2024-03-29T04:50:40;65.13;39.08;76.13;;
37279;Laerm;7458;49.002;8.472;2024-03-29T04:53:07;65.07;38.21;76.11;;
37279;Laerm;7458;49.002;8.472;2024-03-29T04:55:34;65.09;37.70;76.12;;
37279;Laerm;7458;49.002;8.472;2024-03-29T04:58:01;65.15;37.70;76.66;;
37279;Laerm;7458;49.002;8.472;2024-03-29T05:00:28;65.36;36.20;76.47;;
37279;Laerm;7458;49.002;8.472;2024-03-29T05:02:53;65.26;39.46;76.27;;
37279;Laerm;7458;49.002;8.472;2024-03-29T05:05:20;64.22;37.52;80.34;;
37279;Laerm;7458;49.002;8.472;2024-03-29T05:07:46;64.50;36.91;76.25;;
37279;Laerm;7458;49.002;8.472;2024-03-29T05:10:12;64.56;36.91;76.24;;
37279;Laerm;7458;49.002;8.472;2024-03-29T05:12:38;64.27;37.88;76.18;;
37279;Laerm;7458;49.002;8.472;2024-03-29T05:15:05;64.50;37.88;76.19;;
37279;Laerm;7458;49.002;8.472;2024-03-29T05:17:31;64.56;39.08;76.23;;
37279;Laerm;7458;49.002;8.472;2024-03-29T05:19:57;64.22;38.52;78.89;;
37279;Laerm;7458;49.002;8.472;2024-03-29T05:22:23;64.50;37.12;76.02;;
37279;Laerm;7458;49.002;8.472;2024-03-29T05:24:53;64.08;38.21;76.11;;
37279;Laerm;7458;49.002;8.472;2024-03-29T05:27:20;63.94;38.05;75.05;;
37279;Laerm;7458;49.002;8.472;2024-03-29T05:29:46;64.07;38.37;75.08;;
37279;Laerm;7458;49.002;8.472;2024-03-29T05:32:13;63.83;37.52;74.97;;
37279;Laerm;7458;49.002;8.472;2024-03-29T05:34:39;63.82;38.37;74.85;;
37279;Laerm;7458;49.002;8.472;2024-03-29T05:37:05;63.78;38.60;74.86;;
37279;Laerm;7458;49.002;8.472;2024-03-29T05:39:31;64.20;38.52;75.14;;
37279;Laerm;7458;49.002;8.472;2024-03-29T05:41:57;64.11;39.34;75.21;;
37279;Laerm;7458;49.002;8.472;2024-03-29T05:44:23;64.31;38.37;75.31;;
37279;Laerm;7458;49.002;8.472;2024-03-29T05:46:50;64.42;38.81;77.83;;
37279;Laerm;7458;49.002;8.472;2024-03-29T05:49:16;64.49;38.05;75.28;;
37279;Laerm;7458;49.002;8.472;2024-03-29T05:51:42;64.61;38.67;78.15;;
37279;Laerm;7458;49.002;8.472;2024-03-29T05:54:08;66.82;38.67;89.25;;
37279;Laerm;7458;49.002;8.472;2024-03-29T05:56:35;64.76;37.70;75.70;;
37279;Laerm;7458;49.002;8.472;2024-03-29T05:59:01;64.70;38.21;75.63;;
37279;Laerm;7458;49.002;8.472;2024-03-29T06:01:26;64.33;37.88;75.64;;
37279;Laerm;7458;49.002;8.472;2024-03-29T06:03:52;64.31;38.05;75.67;;
37279;Laerm;7458;49.002;8.472;2024-03-29T06:06:20;64.39;38.67;75.78;;
37279;Laerm;7458;49.002;8.472;2024-03-29T06:08:50;64.25;38.81;75.59;;
37279;Laerm;7458;49.002;8.472;2024-03-29T06:11:17;64.48;39.34;75.56;;
37279;Laerm;7458;49.002;8.472;2024-03-29T06:13:43;64.49;38.67;75.53;;
37279;Laerm;7458;49.002;8.472;2024-03-29T06:16:22;64.29;38.81;81.61;;
37279;Laerm;7458;49.002;8.472;2024-03-29T06:19:07;63.94;38.32;75.45;;
37279;Laerm;7458;49.002;8.472;2024-03-29T06:21:32;64.57;39.21;75.66;;
37279;Laerm;7458;49.002;8.472;2024-03-29T06:24:05;64.53;38.81;75.62;;
37279;Laerm;7458;49.002;8.472;2024-03-29T06:26:32;64.10;38.37;75.59;;
37279;Laerm;7458;49.002;8.472;2024-03-29T06:28:58;64.03;38.37;74.89;;
37279;Laerm;7458;49.002;8.472;2024-03-29T06:31:24;64.55;38.52;77.66;;
37279;Laerm;7458;49.002;8.472;2024-03-29T06:33:50;64.51;39.08;75.29;;
37279;Laerm;7458;49.002;8.472;2024-03-29T06:36:17;65.31;39.58;76.94;;
37279;Laerm;7458;49.002;8.472;2024-03-29T06:38:43;65.84;40.23;76.82;;
37279;Laerm;7458;49.002;8.472;2024-03-29T06:41:09;66.02;40.89;76.98;;
37279;Laerm;7458;49.002;8.472;2024-03-29T06:43:35;65.89;41.06;76.98;;
37279;Laerm;7458;49.002;8.472;2024-03-29T06:46:01;62.61;41.38;76.55;;
37279;Laerm;7458;49.002;8.472;2024-03-29T06:48:29;65.07;41.30;76.79;;
37279;Laerm;7458;49.002;8.472;2024-03-29T06:50:58;65.27;41.30;76.67;;
37279;Laerm;7458;49.002;8.472;2024-03-29T06:53:24;65.62;42.22;77.06;;
37279;Laerm;7458;49.002;8.472;2024-03-29T06:55:51;65.76;42.41;76.88;;
37279;Laerm;7458;49.002;8.472;2024-03-29T06:58:17;65.95;41.75;78.20;;
37279;Laerm;7458;49.002;8.472;2024-03-29T07:01:02;64.97;41.46;75.96;;
37279;Laerm;7458;49.002;8.472;2024-03-29T07:03:28;65.28;43.34;76.13;;
37279;Laerm;7458;49.002;8.472;2024-03-29T07:05:54;65.37;43.49;75.97;;
37279;Laerm;7458;49.002;8.472;2024-03-29T07:08:21;64.99;42.65;85.56;;
37279;Laerm;7458;49.002;8.472;2024-03-29T07:11:00;64.73;43.34;75.74;;
37279;Laerm;7458;49.002;8.472;2024-03-29T07:13:29;64.66;43.51;79.41;;
37279;Laerm;7458;49.002;8.472;2024-03-29T07:16:00;65.01;43.24;75.88;;
37279;Laerm;7458;49.002;8.472;2024-03-29T07:18:26;64.50;42.29;76.08;;
37279;Laerm;7458;49.002;8.472;2024-03-29T07:20:52;64.61;41.30;77.50;;
37279;Laerm;7458;49.002;8.472;2024-03-29T07:23:19;64.96;42.88;88.23;;
37279;Laerm;7458;49.002;8.472;2024-03-29T07:28:25;63.72;42.47;81.75;;
37279;Laerm;7458;49.002;8.472;2024-03-29T07:30:51;65.35;45.33;76.88;;
37279;Laerm;7458;49.002;8.472;2024-03-29T07:33:19;64.77;51.62;77.44;;
37279;Laerm;7458;49.002;8.472;2024-03-29T07:35:47;65.54;50.41;81.62;;
37279;Laerm;7458;49.002;8.472;2024-03-29T07:38:14;64.96;47.16;75.67;;
37279;Laerm;7458;49.002;8.472;2024-03-29T07:40:43;64.80;45.23;75.70;;
37279;Laerm;7458;49.002;8.472;2024-03-29T07:43:09;64.05;48.88;74.73;;
37279;Laerm;7458;49.002;8.472;2024-03-29T07:45:35;63.21;47.77;74.37;;
37279;Laerm;7458;49.002;8.472;2024-03-29T07:48:02;64.04;48.03;80.49;;
37279;Laerm;7458;49.002;8.472;2024-03-29T07:50:28;63.02;48.77;81.12;;
37279;Laerm;7458;49.002;8.472;2024-03-29T07:52:54;62.50;50.55;82.24;;
37279;Laerm;7458;49.002;8.472;2024-03-29T07:55:20;61.68;50.67;82.24;;
37279;Laerm;7458;49.002;8.472;2024-03-29T07:57:46;61.69;51.96;82.23;;
37279;Laerm;7458;49.002;8.472;2024-03-29T08:00:13;60.84;51.06;83.40;;
37279;Laerm;7458;49.002;8.472;2024-03-29T08:02:40;60.79;50.61;73.99;;
37279;Laerm;7458;49.002;8.472;2024-03-29T08:05:06;60.67;46.38;80.87;;
37279;Laerm;7458;49.002;8.472;2024-03-29T08:07:33;58.76;47.68;72.34;;
37279;Laerm;7458;49.002;8.472;2024-03-29T08:09:59;59.70;46.91;72.48;;
37279;Laerm;7458;49.002;8.472;2024-03-29T08:12:25;60.45;46.97;78.25;;
37279;Laerm;7458;49.002;8.472;2024-03-29T08:14:51;72.76;46.91;96.51;;
37279;Laerm;7458;49.002;8.472;2024-03-29T08:17:17;69.92;47.28;100.94;;
37279;Laerm;7458;49.002;8.472;2024-03-29T08:19:43;81.93;48.28;100.27;;
37279;Laerm;7458;49.002;8.472;2024-03-29T08:22:09;92.83;48.92;100.87;;
37279;Laerm;7458;49.002;8.472;2024-03-29T08:24:38;89.22;46.59;101.05;;
37279;Laerm;7458;49.002;8.472;2024-03-29T08:27:05;86.59;45.45;100.50;;
37279;Laerm;7458;49.002;8.472;2024-03-29T08:29:31;91.83;45.20;100.68;;
37279;Laerm;7458;49.002;8.472;2024-03-29T08:31:57;87.88;45.57;100.61;;
37279;Laerm;7458;49.002;8.472;2024-03-29T08:34:23;77.36;46.55;91.70;;
37279;Laerm;7458;49.002;8.472;2024-03-29T08:36:50;77.38;46.71;90.90;;
37279;Laerm;7458;49.002;8.472;2024-03-29T08:39:16;77.64;46.76;89.75;;
37279;Laerm;7458;49.002;8.472;2024-03-29T08:41:42;77.15;46.33;89.47;;
37279;Laerm;7458;49.002;8.472;2024-03-29T08:44:13;76.53;46.13;89.54;;
37279;Laerm;7458;49.002;8.472;2024-03-29T08:46:39;77.52;47.52;89.49;;
37279;Laerm;7458;49.002;8.472;2024-03-29T08:49:05;76.92;47.46;89.41;;
37279;Laerm;7458;49.002;8.472;2024-03-29T08:51:31;77.43;46.48;89.88;;
37279;Laerm;7458;49.002;8.472;2024-03-29T08:53:57;76.98;46.40;89.27;;
37279;Laerm;7458;49.002;8.472;2024-03-29T08:56:24;77.24;46.40;89.27;;
37279;Laerm;7458;49.002;8.472;2024-03-29T08:58:50;77.20;44.69;89.23;;
37279;Laerm;7458;49.002;8.472;2024-03-29T09:01:17;77.40;44.69;89.47;;
37279;Laerm;7458;49.002;8.472;2024-03-29T09:03:43;77.98;45.01;91.73;;
37279;Laerm;7458;49.002;8.472;2024-03-29T09:06:10;77.62;46.76;91.08;;
37279;Laerm;7458;49.002;8.472;2024-03-29T09:08:36;77.37;45.23;89.48;;
37279;Laerm;7458;49.002;8.472;2024-03-29T09:11:03;77.69;46.15;89.88;;
37279;Laerm;7458;49.002;8.472;2024-03-29T09:13:30;77.69;46.55;89.71;;
37279;Laerm;7458;49.002;8.472;2024-03-29T09:15:56;77.45;45.97;89.22;;
37279;Laerm;7458;49.002;8.472;2024-03-29T09:18:22;77.81;45.91;90.57;;
37279;Laerm;7458;49.002;8.472;2024-03-29T09:21:01;77.85;45.20;91.64;;
37279;Laerm;7458;49.002;8.472;2024-03-29T09:23:28;77.52;46.38;89.22;;
37279;Laerm;7458;49.002;8.472;2024-03-29T09:25:55;77.40;46.80;89.44;;
37279;Laerm;7458;49.002;8.472;2024-03-29T09:28:25;77.49;47.67;89.21;;
37279;Laerm;7458;49.002;8.472;2024-03-29T09:31:00;77.88;48.49;92.37;;
37279;Laerm;7458;49.002;8.472;2024-03-29T09:33:28;77.27;46.84;89.22;;
37279;Laerm;7458;49.002;8.472;2024-03-29T09:35:54;77.01;46.18;90.28;;
37279;Laerm;7458;49.002;8.472;2024-03-29T09:38:21;76.94;47.08;89.43;;
37279;Laerm;7458;49.002;8.472;2024-03-29T09:43:34;77.49;47.63;90.95;;
37279;Laerm;7458;49.002;8.472;2024-03-29T09:46:00;77.45;45.72;89.87;;
37279;Laerm;7458;49.002;8.472;2024-03-29T09:48:27;77.56;45.99;90.62;;
37279;Laerm;7458;49.002;8.472;2024-03-29T09:51:05;77.17;45.33;89.44;;
37279;Laerm;7458;49.002;8.472;2024-03-29T09:53:34;77.24;44.69;89.53;;
37279;Laerm;7458;49.002;8.472;2024-03-29T09:56:07;77.18;45.04;89.22;;
37279;Laerm;7458;49.002;8.472;2024-03-29T09:58:37;77.00;44.51;89.62;;
37279;Laerm;7458;49.002;8.472;2024-03-29T10:01:05;77.98;44.58;89.90;;
37279;Laerm;7458;49.002;8.472;2024-03-29T10:03:35;77.51;45.45;91.91;;
37279;Laerm;7458;49.002;8.472;2024-03-29T10:06:02;76.94;46.64;89.44;;
37279;Laerm;7458;49.002;8.472;2024-03-29T10:08:30;76.86;45.30;89.21;;
37279;Laerm;7458;49.002;8.472;2024-03-29T10:11:00;76.49;45.23;89.49;;
37279;Laerm;7458;49.002;8.472;2024-03-29T10:13:26;77.01;45.77;89.61;;
37279;Laerm;7458;49.002;8.472;2024-03-29T10:15:53;77.38;44.80;89.60;;
37279;Laerm;7458;49.002;8.472;2024-03-29T10:18:25;76.62;45.04;89.51;;
37279;Laerm;7458;49.002;8.472;2024-03-29T10:21:06;76.62;44.51;89.53;;
37279;Laerm;7458;49.002;8.472;2024-03-29T10:23:35;76.99;45.11;89.54;;
37279;Laerm;7458;49.002;8.472;2024-03-29T10:26:04;77.67;45.30;89.23;;
37279;Laerm;7458;49.002;8.472;2024-03-29T10:28:32;76.69;45.27;89.50;;
37279;Laerm;7458;49.002;8.472;2024-03-29T10:31:02;76.65;41.53;89.22;;
37279;Laerm;7458;49.002;8.472;2024-03-29T10:33:32;76.65;44.80;89.22;;
37279;Laerm;7458;49.002;8.472;2024-03-29T10:36:02;77.93;45.33;91.07;;
37279;Laerm;7458;49.002;8.472;2024-03-29T10:38:31;78.01;44.54;89.58;;
37279;Laerm;7458;49.002;8.472;2024-03-29T10:40:57;77.86;44.47;89.22;;
37279;Laerm;7458;49.002;8.472;2024-03-29T10:43:24;77.00;45.57;89.21;;
37279;Laerm;7458;49.002;8.472;2024-03-29T10:45:50;78.05;44.27;89.21;;
37279;Laerm;7458;49.002;8.472;2024-03-29T10:48:20;77.89;44.58;89.59;;
37279;Laerm;7458;49.002;8.472;2024-03-29T10:50:48;77.63;44.73;90.74;;
37279;Laerm;7458;49.002;8.472;2024-03-29T10:53:17;78.52;45.48;89.64;;
37279;Laerm;7458;49.002;8.472;2024-03-29T10:55:43;78.18;44.65;92.75;;
37279;Laerm;7458;49.002;8.472;2024-03-29T10:58:12;78.07;44.83;90.70;;
37279;Laerm;7458;49.002;8.472;2024-03-29T11:00:47;78.23;43.68;90.93;;
37279;Laerm;7458;49.002;8.472;2024-03-29T11:03:20;78.54;43.34;90.59;;
37279;Laerm;7458;49.002;8.472;2024-03-29T11:05:50;78.48;45.01;89.26;;
37279;Laerm;7458;49.002;8.472;2024-03-29T11:08:27;78.02;45.39;89.23;;
37279;Laerm;7458;49.002;8.472;2024-03-29T11:10:58;78.20;44.97;89.31;;
37279;Laerm;7458;49.002;8.472;2024-03-29T11:13:56;78.49;44.11;89.49;;
37279;Laerm;7458;49.002;8.472;2024-03-29T11:16:24;78.41;43.14;89.52;;
37279;Laerm;7458;49.002;8.472;2024-03-29T11:18:52;78.79;44.47;91.26;;
37279;Laerm;7458;49.002;8.472;2024-03-29T11:21:18;78.32;44.94;92.09;;
37279;Laerm;7458;49.002;8.472;2024-03-29T11:23:50;78.43;44.87;89.61;;
37279;Laerm;7458;49.002;8.472;2024-03-29T11:26:18;78.73;45.91;91.96;;
37279;Laerm;7458;49.002;8.472;2024-03-29T11:28:50;78.40;43.24;89.47;;
37279;Laerm;7458;49.002;8.472;2024-03-29T11:31:16;79.29;42.22;91.78;;
37279;Laerm;7458;49.002;8.472;2024-03-29T11:36:24;79.41;43.44;92.00;;
37279;Laerm;7458;49.002;8.472;2024-03-29T11:38:53;79.18;44.23;91.72;;
37279;Laerm;7458;49.002;8.472;2024-03-29T11:41:22;79.49;43.68;92.72;;
37279;Laerm;7458;49.002;8.472;2024-03-29T11:43:55;79.24;42.76;92.10;;
37279;Laerm;7458;49.002;8.472;2024-03-29T11:46:22;79.75;43.58;91.79;;
37279;Laerm;7458;49.002;8.472;2024-03-29T11:48:49;79.00;43.19;90.59;;
37279;Laerm;7458;49.002;8.472;2024-03-29T11:51:20;79.26;43.68;92.51;;
37279;Laerm;7458;49.002;8.472;2024-03-29T11:53:52;79.52;42.47;89.74;;
37279;Laerm;7458;49.002;8.472;2024-03-29T11:56:19;79.77;43.49;92.17;;
37279;Laerm;7458;49.002;8.472;2024-03-29T11:58:45;79.43;44.15;92.25;;
37279;Laerm;7458;49.002;8.472;2024-03-29T12:01:12;79.60;43.54;91.79;;
37279;Laerm;7458;49.002;8.472;2024-03-29T12:03:41;80.06;44.03;93.88;;
37279;Laerm;7458;49.002;8.472;2024-03-29T12:06:08;79.10;43.94;91.80;;
37279;Laerm;7458;49.002;8.472;2024-03-29T12:08:39;78.93;43.58;90.33;;
37279;Laerm;7458;49.002;8.472;2024-03-29T12:11:06;78.72;42.76;91.64;;
37279;Laerm;7458;49.002;8.472;2024-03-29T12:13:33;79.18;44.73;91.62;;
37279;Laerm;7458;49.002;8.472;2024-03-29T12:16:00;79.61;44.54;91.90;;
37279;Laerm;7458;49.002;8.472;2024-03-29T12:18:27;79.31;44.76;92.99;;
37279;Laerm;7458;49.002;8.472;2024-03-29T12:20:59;79.25;42.16;92.85;;
37279;Laerm;7458;49.002;8.472;2024-03-29T12:23:25;79.31;44.58;92.78;;
37279;Laerm;7458;49.002;8.472;2024-03-29T12:25:55;78.95;45.43;89.93;;
37279;Laerm;7458;49.002;8.472;2024-03-29T12:28:24;78.66;44.76;91.73;;
37279;Laerm;7458;49.002;8.472;2024-03-29T12:30:50;78.62;44.27;89.44;;
37279;Laerm;7458;49.002;8.472;2024-03-29T12:33:19;78.73;44.07;89.95;;
37279;Laerm;7458;49.002;8.472;2024-03-29T12:35:52;78.41;43.58;90.81;;
37279;Laerm;7458;49.002;8.472;2024-03-29T12:38:21;78.84;43.99;91.24;;
37279;Laerm;7458;49.002;8.472;2024-03-29T12:40:49;78.48;45.99;89.89;;
37279;Laerm;7458;49.002;8.472;2024-03-29T12:43:21;78.52;45.27;90.57;;
37279;Laerm;7458;49.002;8.472;2024-03-29T12:45:48;78.89;45.51;90.73;;
37279;Laerm;7458;49.002;8.472;2024-03-29T12:48:18;78.57;45.39;91.83;;
37279;Laerm;7458;49.002;8.472;2024-03-29T12:50:46;78.15;44.43;89.46;;
37279;Laerm;7458;49.002;8.472;2024-03-29T12:53:14;78.50;45.07;90.81;;
37279;Laerm;7458;49.002;8.472;2024-03-29T12:55:46;78.34;46.33;90.54;;
37279;Laerm;7458;49.002;8.472;2024-03-29T12:58:14;78.31;46.20;90.79;;
37279;Laerm;7458;49.002;8.472;2024-03-29T13:00:44;77.79;46.28;90.80;;
37279;Laerm;7458;49.002;8.472;2024-03-29T13:03:12;78.01;43.44;90.92;;
37279;Laerm;7458;49.002;8.472;2024-03-29T13:05:40;78.18;45.57;89.48;;
37279;Laerm;7458;49.002;8.472;2024-03-29T13:08:09;77.88;46.62;89.44;;
37279;Laerm;7458;49.002;8.472;2024-03-29T13:10:39;77.81;45.11;89.50;;
37279;Laerm;7458;49.002;8.472;2024-03-29T13:13:06;77.79;48.03;90.92;;
37279;Laerm;7458;49.002;8.472;2024-03-29T13:15:34;77.99;47.16;89.48;;
37279;Laerm;7458;49.002;8.472;2024-03-29T13:18:02;78.06;44.65;89.60;;
37279;Laerm;7458;49.002;8.472;2024-03-29T13:20:30;77.93;45.69;91.81;;
37279;Laerm;7458;49.002;8.472;2024-03-29T13:22:57;77.83;44.80;90.08;;
37279;Laerm;7458;49.002;8.472;2024-03-29T13:25:23;77.91;45.63;89.55;;
37279;Laerm;7458;49.002;8.472;2024-03-29T13:27:54;78.55;44.97;89.46;;
37279;Laerm;7458;49.002;8.472;2024-03-29T13:30:25;77.62;44.94;89.43;;
37279;Laerm;7458;49.002;8.472;2024-03-29T13:32:53;77.64;44.94;89.50;;
37279;Laerm;7458;49.002;8.472;2024-03-29T13:35:19;77.95;45.36;89.51;;
37279;Laerm;7458;49.002;8.472;2024-03-29T13:37:49;77.75;45.30;89.48;;
37279;Laerm;7458;49.002;8.472;2024-03-29T13:40:16;77.97;44.51;89.45;;
37279;Laerm;7458;49.002;8.472;2024-03-29T13:42:43;77.57;44.07;89.49;;
37279;Laerm;7458;49.002;8.472;2024-03-29T13:45:09;77.88;45.17;89.45;;
37279;Laerm;7458;49.002;8.472;2024-03-29T13:47:44;77.68;43.58;89.49;;
37279;Laerm;7458;49.002;8.472;2024-03-29T13:50:11;77.77;43.68;89.51;;
37279;Laerm;7458;49.002;8.472;2024-03-29T13:52:37;77.48;43.29;89.61;;
37279;Laerm;7458;49.002;8.472;2024-03-29T13:55:04;77.47;44.47;89.41;;
37279;Laerm;7458;49.002;8.472;2024-03-29T13:57:31;77.07;42.65;89.45;;
37279;Laerm;7458;49.002;8.472;2024-03-29T13:59:59;76.68;45.17;89.22;;
37279;Laerm;7458;49.002;8.472;2024-03-29T14:02:25;76.47;44.73;89.61;;
37279;Laerm;7458;49.002;8.472;2024-03-29T14:04:54;76.96;45.30;89.21;;
37279;Laerm;7458;49.002;8.472;2024-03-29T14:07:20;77.38;45.86;89.18;;